Time;durP1;ratioP1;P1;durP2;ratioP2;P2;SDS_P1;SDS_P2;PMS_P1;PMS_P2;Temp;Humidity;BMP_temperature;BMP_pressure;BME280_temperature;BME280_humidity;BME280_pressure;Samples;Min_cycle;Max_cycle;Signal;HPM_P1;HPM_P2
2023/03/09 00:01:21;;;;;;;5.93;4.60;;;0.40;99.90;;;;;;5040676;28;20226;-50
2023/03/09 00:03:48;;;;;;;9.23;4.87;;;0.40;99.90;;;;;;5049946;28;20214;-49
2023/03/09 00:06:17;;;;;;;5.40;4.53;;;0.40;99.90;;;;;;5053930;28;20209;-51
2023/03/09 00:08:44;;;;;;;5.43;4.47;;;0.40;99.90;;;;;;5055072;28;20268;-50
2023/03/09 00:11:11;;;;;;;6.93;4.57;;;0.40;99.90;;;;;;5046174;28;20230;-53
2023/03/09 00:13:37;;;;;;;5.33;4.47;;;0.40;99.90;;;;;;5053802;28;20962;-50
2023/03/09 00:16:09;;;;;;;5.87;3.97;;;0.40;99.90;;;;;;5048016;28;20625;-47
2023/03/09 00:18:35;;;;;;;5.30;4.10;;;0.40;99.90;;;;;;5051214;28;20197;-50
2023/03/09 00:21:03;;;;;;;7.90;4.57;;;0.40;99.90;;;;;;5046117;28;20232;-48
2023/03/09 00:23:32;;;;;;;5.23;4.07;;;0.40;99.90;;;;;;5041541;28;20960;-48
2023/03/09 00:26:03;;;;;;;4.73;4.17;;;0.40;99.90;;;;;;5046010;28;20292;-49
2023/03/09 00:28:30;;;;;;;5.80;4.10;;;0.30;99.90;;;;;;5041996;28;20194;-49
2023/03/09 00:31:00;;;;;;;6.40;4.07;;;0.40;99.90;;;;;;5044831;28;20202;-49
2023/03/09 00:33:27;;;;;;;8.07;4.20;;;0.30;99.90;;;;;;5031817;28;20226;-55
2023/03/09 00:35:55;;;;;;;4.37;3.97;;;0.30;99.90;;;;;;5053340;28;20206;-48
2023/03/09 00:38:21;;;;;;;5.13;4.23;;;0.30;99.90;;;;;;5043392;28;20208;-53
2023/03/09 00:40:50;;;;;;;6.37;3.87;;;0.30;99.90;;;;;;5044757;28;20194;-47
2023/03/09 00:43:16;;;;;;;4.80;4.20;;;0.20;99.90;;;;;;5043699;28;20231;-55
2023/03/09 00:45:44;;;;;;;6.67;4.37;;;0.20;99.90;;;;;;5042476;28;20263;-53
2023/03/09 00:48:12;;;;;;;5.80;4.30;;;0.20;99.90;;;;;;5038225;28;20220;-55
2023/03/09 00:50:38;;;;;;;7.20;4.23;;;0.20;99.90;;;;;;5046685;28;20229;-48
2023/03/09 00:53:06;;;;;;;5.07;4.33;;;0.20;99.90;;;;;;5044969;28;20282;-50
2023/03/09 00:55:32;;;;;;;5.23;3.90;;;0.20;99.90;;;;;;5040373;28;20946;-49
2023/03/09 00:58:01;;;;;;;5.17;3.83;;;0.20;99.90;;;;;;5045287;28;20205;-50
2023/03/09 01:00:27;;;;;;;6.13;4.30;;;0.20;99.90;;;;;;5041760;28;20601;-54
2023/03/09 01:02:54;;;;;;;5.47;4.20;;;0.20;99.90;;;;;;5042839;28;20221;-50
2023/03/09 01:05:22;;;;;;;4.17;3.73;;;0.20;99.90;;;;;;5032170;28;20249;-56
2023/03/09 01:07:48;;;;;;;5.97;3.87;;;0.20;99.90;;;;;;5052886;28;20204;-49
2023/03/09 01:10:16;;;;;;;4.93;3.53;;;0.10;99.90;;;;;;5042661;28;20203;-55
2023/03/09 01:12:44;;;;;;;5.07;3.83;;;0.10;99.90;;;;;;5050321;28;20209;-51
2023/03/09 01:15:14;;;;;;;5.13;3.03;;;0.10;99.90;;;;;;5062910;28;20205;-51
2023/03/09 01:17:42;;;;;;;4.23;3.50;;;0.10;99.90;;;;;;5045191;28;20211;-47
2023/03/09 01:20:11;;;;;;;6.57;4.00;;;0.10;99.90;;;;;;5042329;28;20211;-52
2023/03/09 01:22:38;;;;;;;4.83;4.00;;;0.10;99.90;;;;;;5048503;28;20219;-47
2023/03/09 01:25:06;;;;;;;5.30;3.60;;;0.10;99.90;;;;;;5044801;28;20208;-51
2023/03/09 01:27:33;;;;;;;4.93;3.90;;;0.10;99.90;;;;;;5044281;28;20206;-49
2023/03/09 01:30:00;;;;;;;3.57;3.27;;;0.10;99.90;;;;;;5043242;28;20700;-52
2023/03/09 01:32:29;;;;;;;4.87;3.90;;;0.10;99.90;;;;;;5039959;28;20610;-54
2023/03/09 01:34:56;;;;;;;5.10;3.43;;;0.10;99.90;;;;;;5033654;28;20552;-50
2023/03/09 01:37:24;;;;;;;6.27;3.70;;;0.10;99.90;;;;;;5048215;28;20207;-55
2023/03/09 01:39:51;;;;;;;5.00;4.00;;;0.10;99.90;;;;;;5048681;28;20283;-51
2023/03/09 01:42:17;;;;;;;4.23;3.80;;;0.10;99.90;;;;;;5042683;28;20214;-55
2023/03/09 01:44:44;;;;;;;4.77;3.97;;;0.10;99.90;;;;;;5042417;28;20205;-48
2023/03/09 01:47:11;;;;;;;4.83;4.03;;;0.00;99.90;;;;;;5055544;28;20805;-54
2023/03/09 01:49:44;;;;;;;4.57;4.13;;;0.00;99.90;;;;;;5048973;28;20212;-50
2023/03/09 01:52:15;;;;;;;4.90;3.97;;;0.00;99.90;;;;;;5041330;28;20233;-54
2023/03/09 01:55:09;;;;;;;5.30;3.97;;;0.10;99.90;;;;;;5043762;28;20209;-48
2023/03/09 01:57:39;;;;;;;4.67;3.80;;;0.00;99.90;;;;;;5040676;28;20206;-47
2023/03/09 02:00:12;;;;;;;9.67;4.23;;;0.00;99.90;;;;;;5062393;28;20715;-49
2023/03/09 02:02:47;;;;;;;9.13;4.47;;;0.00;99.90;;;;;;5060287;28;20702;-52
2023/03/09 02:05:22;;;;;;;5.50;4.50;;;-0.10;99.90;;;;;;5045174;28;20278;-54
2023/03/09 02:07:51;;;;;;;5.93;4.50;;;-0.10;99.90;;;;;;5035587;28;20240;-49
2023/03/09 02:10:27;;;;;;;7.33;4.87;;;-0.10;99.90;;;;;;5046877;28;20211;-54
2023/03/09 02:12:58;;;;;;;7.03;4.67;;;-0.10;99.90;;;;;;5043708;28;20678;-50
2023/03/09 02:15:26;;;;;;;5.53;4.60;;;-0.10;99.90;;;;;;5038077;28;20246;-54
2023/03/09 02:17:53;;;;;;;5.40;4.50;;;-0.10;99.90;;;;;;5048499;28;20204;-51
2023/03/09 02:20:29;;;;;;;8.53;4.47;;;-0.10;99.90;;;;;;5050881;28;20263;-54
2023/03/09 02:22:56;;;;;;;6.07;4.37;;;-0.10;99.90;;;;;;5039709;28;20259;-47
2023/03/09 02:25:29;;;;;;;5.33;4.37;;;-0.10;99.90;;;;;;5049852;28;20201;-53
2023/03/09 02:27:59;;;;;;;7.50;4.60;;;-0.10;99.90;;;;;;5033957;28;20260;-54
2023/03/09 02:30:29;;;;;;;5.33;4.33;;;-0.10;99.90;;;;;;5051144;28;20205;-48
2023/03/09 02:33:04;;;;;;;9.60;4.53;;;-0.10;99.90;;;;;;5038923;28;20429;-55
2023/03/09 02:35:33;;;;;;;5.73;4.23;;;-0.10;99.90;;;;;;5055226;28;20199;-49
2023/03/09 02:38:00;;;;;;;5.17;4.47;;;-0.10;99.90;;;;;;5041419;28;21181;-51
2023/03/09 02:40:32;;;;;;;6.87;4.87;;;-0.10;99.90;;;;;;5049557;28;20322;-47
2023/03/09 02:43:05;;;;;;;6.80;4.47;;;0.00;99.90;;;;;;5037739;28;20215;-48
2023/03/09 02:45:34;;;;;;;5.73;4.87;;;0.00;99.90;;;;;;5044058;28;20555;-47
2023/03/09 02:48:02;;;;;;;7.07;4.60;;;0.00;99.90;;;;;;5052463;28;20188;-48
2023/03/09 02:50:29;;;;;;;5.60;4.27;;;0.00;99.90;;;;;;5044010;28;20701;-47
2023/03/09 02:52:56;;;;;;;7.50;4.67;;;0.00;99.90;;;;;;5025647;28;20231;-55
2023/03/09 02:55:23;;;;;;;5.67;4.37;;;0.00;99.90;;;;;;5051745;28;20205;-50
2023/03/09 02:57:51;;;;;;;7.33;4.70;;;0.00;99.90;;;;;;5043346;28;20209;-54
2023/03/09 03:00:22;;;;;;;7.33;5.07;;;0.00;99.90;;;;;;5041413;28;20262;-50
2023/03/09 03:02:50;;;;;;;5.87;4.60;;;0.00;99.90;;;;;;5038968;28;20560;-53
2023/03/09 03:05:18;;;;;;;4.83;4.30;;;0.00;99.90;;;;;;5042372;28;20206;-50
2023/03/09 03:07:46;;;;;;;5.20;4.70;;;-0.10;99.90;;;;;;5032217;28;20209;-54
2023/03/09 03:10:13;;;;;;;5.70;4.60;;;0.00;99.90;;;;;;5047510;28;20194;-47
2023/03/09 03:12:40;;;;;;;5.53;4.63;;;0.00;99.90;;;;;;5045970;28;20233;-55
2023/03/09 03:15:09;;;;;;;5.23;4.20;;;-0.10;99.90;;;;;;5039444;28;20261;-52
2023/03/09 03:17:37;;;;;;;6.07;4.10;;;-0.10;99.90;;;;;;5051955;28;20233;-51
2023/03/09 03:20:11;;;;;;;5.07;4.40;;;0.00;99.90;;;;;;5047237;28;20800;-49
2023/03/09 03:22:38;;;;;;;8.90;4.67;;;0.00;99.90;;;;;;5045311;28;20279;-54
2023/03/09 03:25:06;;;;;;;9.10;4.60;;;0.00;99.90;;;;;;5034493;28;20282;-47
2023/03/09 03:27:37;;;;;;;6.23;5.03;;;-0.10;99.90;;;;;;5052924;28;20737;-52
2023/03/09 03:30:07;;;;;;;7.60;5.17;;;-0.10;99.90;;;;;;5042403;28;20283;-51
2023/03/09 03:32:37;;;;;;;4.80;4.30;;;-0.10;99.90;;;;;;5044902;28;20610;-48
2023/03/09 03:35:05;;;;;;;5.60;4.43;;;-0.10;99.90;;;;;;5040889;28;20200;-48
2023/03/09 03:37:36;;;;;;;6.90;4.33;;;-0.10;99.90;;;;;;5052258;28;20202;-51
2023/03/09 03:40:08;;;;;;;9.63;4.67;;;-0.10;99.90;;;;;;5032466;28;20436;-48
2023/03/09 03:42:36;;;;;;;7.03;4.53;;;-0.10;99.90;;;;;;5061423;28;20216;-50
2023/03/09 03:45:05;;;;;;;6.07;4.83;;;-0.10;99.90;;;;;;5041577;28;20197;-53
2023/03/09 03:47:33;;;;;;;6.23;4.47;;;0.00;99.90;;;;;;5059328;28;20254;-48
2023/03/09 03:50:01;;;;;;;7.27;4.60;;;0.00;99.90;;;;;;5045859;28;20208;-49
2023/03/09 03:52:31;;;;;;;4.90;4.40;;;-0.10;99.90;;;;;;5044322;28;20317;-50
2023/03/09 03:54:58;;;;;;;9.33;4.90;;;-0.10;99.90;;;;;;5027277;28;20217;-55
2023/03/09 03:57:26;;;;;;;5.27;4.33;;;-0.10;99.90;;;;;;5050913;28;20193;-49
2023/03/09 03:59:54;;;;;;;5.73;4.37;;;0.00;99.90;;;;;;5040813;28;20202;-55
2023/03/09 04:02:21;;;;;;;7.67;4.97;;;0.00;99.90;;;;;;5042630;28;20194;-52
2023/03/09 04:04:47;;;;;;;5.13;4.13;;;0.00;99.90;;;;;;5049619;28;20213;-53
2023/03/09 04:07:15;;;;;;;7.70;4.20;;;0.00;99.90;;;;;;5046428;28;20277;-47
2023/03/09 04:09:42;;;;;;;8.17;4.57;;;0.00;99.90;;;;;;5056084;28;20669;-55
2023/03/09 04:12:09;;;;;;;7.37;5.00;;;0.00;99.90;;;;;;5037129;28;20228;-53
2023/03/09 04:14:39;;;;;;;6.57;4.63;;;0.00;99.90;;;;;;5056007;28;20280;-55
2023/03/09 04:17:09;;;;;;;5.67;4.27;;;0.00;99.90;;;;;;5050567;28;20200;-49
2023/03/09 04:19:36;;;;;;;5.57;4.83;;;0.00;99.90;;;;;;5053250;28;20294;-48
2023/03/09 04:22:03;;;;;;;4.87;4.37;;;0.00;99.90;;;;;;5045935;28;20185;-52
2023/03/09 04:24:33;;;;;;;7.73;4.73;;;0.00;99.90;;;;;;5044230;28;20237;-48
2023/03/09 04:27:00;;;;;;;6.67;4.37;;;0.00;99.90;;;;;;5034278;28;20200;-47
2023/03/09 04:29:40;;;;;;;6.77;4.27;;;0.00;99.90;;;;;;5051033;28;20230;-54
2023/03/09 04:32:08;;;;;;;7.13;4.80;;;0.00;99.90;;;;;;5060759;28;20227;-49
2023/03/09 04:34:54;;;;;;;8.00;5.17;;;0.00;99.90;;;;;;5043418;28;20204;-54
2023/03/09 04:37:21;;;;;;;7.80;4.97;;;0.00;99.90;;;;;;5044171;28;20283;-50
2023/03/09 04:40:08;;;;;;;6.07;4.97;;;0.00;99.90;;;;;;5056740;28;20207;-51
2023/03/09 04:42:35;;;;;;;6.37;5.20;;;0.00;99.90;;;;;;5040498;28;20218;-50
2023/03/09 04:45:04;;;;;;;6.73;5.03;;;0.00;99.90;;;;;;5045503;28;20834;-50
2023/03/09 04:47:33;;;;;;;7.70;5.03;;;0.00;99.90;;;;;;5050314;28;20207;-49
2023/03/09 04:50:00;;;;;;;8.37;4.87;;;0.00;99.90;;;;;;5052249;28;20250;-53
2023/03/09 04:52:32;;;;;;;6.97;5.00;;;0.00;99.90;;;;;;5047029;28;20578;-47
2023/03/09 04:55:00;;;;;;;10.03;5.30;;;0.00;99.90;;;;;;5039599;28;20195;-48
2023/03/09 04:57:29;;;;;;;7.73;5.60;;;0.00;99.90;;;;;;5043987;28;20545;-52
2023/03/09 04:59:56;;;;;;;9.73;5.43;;;0.00;99.90;;;;;;5037946;28;20204;-54
2023/03/09 05:02:24;;;;;;;9.07;4.97;;;0.10;99.90;;;;;;5037093;28;20205;-55
2023/03/09 05:04:51;;;;;;;7.27;5.17;;;0.00;99.90;;;;;;5042906;28;20252;-48
2023/03/09 05:07:18;;;;;;;7.30;4.90;;;0.10;99.90;;;;;;5052806;28;20271;-54
2023/03/09 05:09:45;;;;;;;6.63;5.10;;;0.10;99.90;;;;;;5052170;28;20191;-48
2023/03/09 05:12:13;;;;;;;7.43;4.83;;;0.10;99.90;;;;;;5046986;28;20199;-54
2023/03/09 05:14:43;;;;;;;9.97;5.40;;;0.10;99.90;;;;;;5032906;28;20230;-50
2023/03/09 05:17:11;;;;;;;7.60;4.80;;;0.10;99.90;;;;;;5047991;28;20196;-51
2023/03/09 05:19:38;;;;;;;7.47;5.10;;;0.10;99.90;;;;;;5054208;28;20206;-48
2023/03/09 05:22:06;;;;;;;10.23;5.47;;;0.10;99.90;;;;;;5062530;28;20241;-48
2023/03/09 05:24:34;;;;;;;7.50;4.80;;;0.10;99.90;;;;;;5057982;28;20217;-48
2023/03/09 05:27:22;;;;;;;8.80;6.10;;;0.10;99.90;;;;;;5049278;28;20225;-55
2023/03/09 05:29:53;;;;;;;8.43;5.20;;;0.10;99.90;;;;;;5041769;28;20267;-53
2023/03/09 05:32:21;;;;;;;7.40;5.23;;;0.10;99.90;;;;;;5038205;28;20219;-56
2023/03/09 05:34:48;;;;;;;7.37;5.57;;;0.10;99.90;;;;;;5047499;28;20206;-50
2023/03/09 05:37:18;;;;;;;5.80;4.60;;;0.10;99.90;;;;;;5049118;28;20196;-53
2023/03/09 05:39:45;;;;;;;8.87;5.47;;;0.10;99.90;;;;;;5044954;28;21027;-52
2023/03/09 05:42:12;;;;;;;11.93;6.07;;;0.10;99.90;;;;;;5047143;28;20298;-56
2023/03/09 05:44:40;;;;;;;6.57;5.57;;;0.00;99.90;;;;;;5032731;28;20211;-51
2023/03/09 05:47:26;;;;;;;9.10;5.50;;;0.00;99.90;;;;;;5044302;28;20296;-54
2023/03/09 05:49:53;;;;;;;7.03;5.50;;;0.00;99.90;;;;;;5051066;28;20284;-48
2023/03/09 05:52:20;;;;;;;8.37;5.27;;;0.00;99.90;;;;;;5042750;28;20663;-54
2023/03/09 05:54:48;;;;;;;9.47;5.53;;;0.00;99.90;;;;;;5047503;28;20664;-50
2023/03/09 05:57:17;;;;;;;7.37;5.07;;;0.00;99.90;;;;;;5041374;28;20197;-53
2023/03/09 05:59:48;;;;;;;9.10;5.60;;;0.00;99.90;;;;;;5050327;28;20215;-53
2023/03/09 06:02:15;;;;;;;9.70;5.50;;;0.00;99.90;;;;;;5036064;28;20212;-54
2023/03/09 06:04:44;;;;;;;6.03;5.30;;;0.00;99.90;;;;;;5048033;28;20188;-48
2023/03/09 06:07:12;;;;;;;8.90;5.60;;;0.00;99.90;;;;;;5051002;28;20199;-56
2023/03/09 06:09:43;;;;;;;8.90;6.20;;;0.00;99.90;;;;;;5046925;28;20204;-53
2023/03/09 06:12:19;;;;;;;8.13;5.70;;;0.00;99.90;;;;;;5050788;28;20201;-55
2023/03/09 06:14:49;;;;;;;8.80;6.03;;;0.00;99.90;;;;;;5038687;28;20242;-50
2023/03/09 06:17:17;;;;;;;7.67;5.30;;;0.00;99.90;;;;;;5037302;28;20213;-56
2023/03/09 06:20:06;;;;;;;6.97;5.13;;;0.00;99.90;;;;;;5044924;28;20207;-53
2023/03/09 06:22:39;;;;;;;11.57;5.97;;;0.00;99.90;;;;;;5050293;28;21033;-52
2023/03/09 06:25:08;;;;;;;8.87;5.67;;;0.00;99.90;;;;;;5063086;28;20246;-51
2023/03/09 06:27:36;;;;;;;7.07;5.73;;;0.00;99.90;;;;;;5038775;28;20204;-50
2023/03/09 06:30:03;;;;;;;10.13;5.83;;;0.00;99.90;;;;;;5051644;28;20326;-52
2023/03/09 06:32:32;;;;;;;8.73;5.50;;;0.00;99.90;;;;;;5028211;28;20192;-50
2023/03/09 06:34:59;;;;;;;6.80;5.03;;;0.00;99.90;;;;;;5052841;28;20202;-50
2023/03/09 06:37:28;;;;;;;9.27;6.03;;;0.00;99.90;;;;;;5040422;28;20233;-55
2023/03/09 06:39:55;;;;;;;8.80;5.97;;;0.10;99.90;;;;;;5049729;28;20197;-52
2023/03/09 06:42:24;;;;;;;8.23;6.00;;;0.10;99.90;;;;;;5038303;28;20683;-54
2023/03/09 06:44:53;;;;;;;7.53;6.10;;;0.10;99.90;;;;;;5047174;28;20319;-50
2023/03/09 06:47:23;;;;;;;8.43;5.83;;;0.10;99.90;;;;;;5031136;28;20270;-56
2023/03/09 06:49:56;;;;;;;14.87;6.40;;;0.10;99.90;;;;;;5055401;28;20283;-49
2023/03/09 06:52:28;;;;;;;9.13;5.37;;;0.20;99.90;;;;;;5038269;28;20583;-53
2023/03/09 06:54:54;;;;;;;8.53;5.67;;;0.30;99.90;;;;;;5061619;28;20222;-51
2023/03/09 06:57:22;;;;;;;8.57;5.93;;;0.20;99.90;;;;;;5048936;28;20274;-54
2023/03/09 06:59:50;;;;;;;8.47;5.87;;;0.30;99.90;;;;;;5057458;28;20210;-48
2023/03/09 07:02:17;;;;;;;7.73;6.07;;;0.30;99.90;;;;;;5046604;28;20289;-55
2023/03/09 07:04:45;;;;;;;8.87;6.47;;;0.30;99.90;;;;;;5046549;28;20212;-50
2023/03/09 07:07:12;;;;;;;9.13;5.87;;;0.30;99.90;;;;;;5058794;28;20219;-54
2023/03/09 07:09:40;;;;;;;10.27;6.63;;;0.40;99.90;;;;;;5057803;28;20210;-50
2023/03/09 07:12:07;;;;;;;12.57;6.90;;;0.40;99.90;;;;;;5059531;28;20200;-51
2023/03/09 07:14:33;;;;;;;8.80;5.93;;;0.40;99.90;;;;;;5043765;28;20219;-52
2023/03/09 07:17:00;;;;;;;10.17;6.43;;;0.40;99.90;;;;;;5046020;28;20200;-52
2023/03/09 07:19:27;;;;;;;8.03;6.20;;;0.50;99.90;;;;;;5039713;28;20224;-50
2023/03/09 07:21:54;;;;;;;7.90;5.70;;;0.50;99.90;;;;;;5059277;28;20252;-51
2023/03/09 07:24:21;;;;;;;9.47;6.43;;;0.60;99.90;;;;;;5046727;28;20251;-52
2023/03/09 07:26:49;;;;;;;12.70;6.20;;;0.60;99.90;;;;;;5048895;28;20194;-55
2023/03/09 07:29:17;;;;;;;10.00;6.40;;;0.70;99.90;;;;;;5050463;28;20199;-49
2023/03/09 07:31:43;;;;;;;9.97;6.23;;;0.70;99.90;;;;;;5056028;28;20291;-53
2023/03/09 07:34:10;;;;;;;10.50;6.37;;;0.80;99.90;;;;;;5032989;28;20226;-50
2023/03/09 07:36:37;;;;;;;8.37;6.27;;;0.80;99.90;;;;;;5047579;28;20212;-49
2023/03/09 07:39:04;;;;;;;8.53;6.27;;;0.90;99.90;;;;;;5049562;28;20216;-45
2023/03/09 07:41:31;;;;;;;11.53;6.60;;;0.90;99.90;;;;;;5058358;28;20728;-47
2023/03/09 07:43:59;;;;;;;11.40;5.53;;;0.90;99.90;;;;;;5062450;28;20212;-52
2023/03/09 07:46:27;;;;;;;10.47;6.40;;;1.00;99.90;;;;;;5046022;28;20720;-48
2023/03/09 07:48:54;;;;;;;8.70;6.10;;;1.00;99.90;;;;;;5044636;28;20925;-53
2023/03/09 07:51:21;;;;;;;20.27;9.70;;;1.00;99.90;;;;;;5041876;28;20251;-52
2023/03/09 07:53:48;;;;;;;11.03;5.93;;;1.00;99.90;;;;;;5053841;28;20225;-54
2023/03/09 07:56:16;;;;;;;8.73;5.97;;;1.10;99.90;;;;;;5055925;28;20202;-52
2023/03/09 07:58:43;;;;;;;10.37;6.20;;;1.20;99.90;;;;;;5047589;28;20285;-50
2023/03/09 08:01:17;;;;;;;9.10;5.77;;;1.20;99.90;;;;;;5054329;28;20216;-54
2023/03/09 08:03:44;;;;;;;11.93;6.53;;;1.30;99.90;;;;;;5041164;28;20292;-52
2023/03/09 08:06:12;;;;;;;7.83;6.13;;;1.30;99.90;;;;;;5041691;28;20216;-51
2023/03/09 08:08:40;;;;;;;7.87;5.77;;;1.30;99.90;;;;;;5051913;28;20207;-49
2023/03/09 08:11:07;;;;;;;7.97;5.87;;;1.30;99.90;;;;;;5049866;28;20665;-54
2023/03/09 08:13:35;;;;;;;8.00;5.63;;;1.40;99.90;;;;;;5048656;28;20221;-50
2023/03/09 08:16:03;;;;;;;9.10;6.07;;;1.40;99.90;;;;;;5054907;28;20201;-53
2023/03/09 08:18:32;;;;;;;7.83;5.60;;;1.40;99.90;;;;;;5047713;28;20203;-52
2023/03/09 08:21:05;;;;;;;8.87;5.90;;;1.40;99.90;;;;;;5036426;28;20938;-52
2023/03/09 08:23:33;;;;;;;10.87;6.37;;;1.50;99.90;;;;;;5055846;28;20546;-49
2023/03/09 08:26:00;;;;;;;44.83;27.33;;;1.50;99.90;;;;;;5049640;28;20260;-49
2023/03/09 08:28:27;;;;;;;10.17;6.70;;;1.60;99.90;;;;;;5049370;28;20221;-50
2023/03/09 08:30:53;;;;;;;9.90;6.40;;;1.70;99.90;;;;;;5055463;28;20194;-52
2023/03/09 08:33:20;;;;;;;11.23;6.53;;;1.70;99.90;;;;;;5053419;28;20226;-52
2023/03/09 08:35:48;;;;;;;9.33;6.03;;;1.70;99.90;;;;;;5027100;28;20202;-55
2023/03/09 08:38:15;;;;;;;8.73;6.97;;;1.80;99.90;;;;;;5061996;28;20198;-51
2023/03/09 08:40:43;;;;;;;12.50;7.07;;;1.80;99.90;;;;;;5051570;28;20259;-49
2023/03/09 08:43:10;;;;;;;11.60;7.43;;;1.90;99.90;;;;;;5048878;28;20300;-52
2023/03/09 08:45:37;;;;;;;11.30;7.97;;;2.00;99.90;;;;;;5047989;28;20252;-49
2023/03/09 08:48:05;;;;;;;13.80;8.30;;;2.10;99.90;;;;;;5049968;28;20202;-49
2023/03/09 08:50:32;;;;;;;11.50;8.23;;;2.10;99.90;;;;;;5049457;28;20206;-52
2023/03/09 08:53:00;;;;;;;12.77;8.83;;;2.20;99.90;;;;;;5043364;28;20211;-55
2023/03/09 08:55:27;;;;;;;14.73;7.77;;;2.30;99.90;;;;;;5051702;28;20222;-51
2023/03/09 08:57:55;;;;;;;15.77;8.07;;;2.40;99.90;;;;;;5041193;28;20286;-55
2023/03/09 09:00:23;;;;;;;10.17;7.00;;;2.50;99.90;;;;;;5045784;28;20218;-56
2023/03/09 09:02:50;;;;;;;12.10;6.57;;;2.70;99.90;;;;;;5042441;28;20214;-51
2023/03/09 09:05:17;;;;;;;10.13;6.20;;;2.80;99.90;;;;;;5045525;28;20666;-53
2023/03/09 09:07:44;;;;;;;7.37;5.80;;;2.90;99.90;;;;;;5027663;28;20875;-56
2023/03/09 09:10:13;;;;;;;7.33;5.23;;;2.90;99.90;;;;;;5047077;28;20294;-54
2023/03/09 09:12:40;;;;;;;10.57;5.57;;;2.90;99.90;;;;;;5044137;28;20219;-48
2023/03/09 09:15:09;;;;;;;7.07;6.20;;;3.00;99.90;;;;;;5051179;28;20264;-52
2023/03/09 09:17:36;;;;;;;10.10;5.70;;;3.10;99.90;;;;;;5042581;28;20278;-46
2023/03/09 09:20:04;;;;;;;8.23;5.27;;;3.10;99.90;;;;;;5046557;28;20269;-52
2023/03/09 09:22:31;;;;;;;5.37;4.47;;;3.20;99.90;;;;;;5033328;28;20732;-51
2023/03/09 09:24:58;;;;;;;5.80;4.93;;;3.10;99.90;;;;;;5059502;28;20245;-51
2023/03/09 09:27:27;;;;;;;9.90;5.23;;;3.10;99.90;;;;;;5046359;28;20278;-49
2023/03/09 09:29:53;;;;;;;6.53;4.60;;;3.10;99.90;;;;;;5050390;28;20199;-49
2023/03/09 09:32:21;;;;;;;6.87;5.20;;;3.10;99.90;;;;;;5048680;28;20214;-48
2023/03/09 09:34:48;;;;;;;7.80;5.50;;;3.20;99.90;;;;;;5037094;28;20226;-49
2023/03/09 09:37:15;;;;;;;8.33;5.30;;;3.30;99.90;;;;;;5036193;28;20315;-49
2023/03/09 09:39:42;;;;;;;6.80;4.87;;;3.30;99.90;;;;;;5045403;28;20230;-47
2023/03/09 09:42:18;;;;;;;7.67;5.00;;;3.30;99.90;;;;;;5057392;28;20199;-49
2023/03/09 09:44:49;;;;;;;6.23;4.40;;;3.30;99.90;;;;;;5047921;28;20221;-51
2023/03/09 09:47:21;;;;;;;6.80;5.00;;;3.40;99.90;;;;;;5049948;28;20203;-50
2023/03/09 09:49:52;;;;;;;6.90;4.47;;;3.40;99.90;;;;;;5043740;28;20925;-48
2023/03/09 09:52:44;;;;;;;7.57;4.70;;;3.40;99.90;;;;;;5033389;28;20821;-50
2023/03/09 09:55:20;;;;;;;6.00;4.87;;;3.50;99.90;;;;;;5054871;28;20735;-49
2023/03/09 09:57:49;;;;;;;5.37;4.33;;;3.60;99.90;;;;;;5040190;28;20270;-49
2023/03/09 10:00:21;;;;;;;6.20;4.40;;;3.60;99.90;;;;;;5043753;28;20195;-51
2023/03/09 10:03:10;;;;;;;5.13;4.43;;;3.70;99.90;;;;;;5039463;28;20233;-49
2023/03/09 10:05:43;;;;;;;6.00;4.53;;;3.80;99.90;;;;;;5056693;28;20190;-50
2023/03/09 10:08:22;;;;;;;5.27;4.27;;;3.80;99.90;;;;;;5042867;28;20308;-50
2023/03/09 10:10:50;;;;;;;4.77;3.77;;;3.80;99.90;;;;;;5048591;28;20220;-49
2023/03/09 10:13:24;;;;;;;4.80;4.30;;;3.80;99.90;;;;;;5046372;28;20273;-47
2023/03/09 10:15:53;;;;;;;5.57;4.50;;;3.80;99.90;;;;;;5047090;28;20253;-47
2023/03/09 10:18:30;;;;;;;5.97;3.77;;;3.80;99.90;;;;;;5053591;28;20199;-50
2023/03/09 10:20:57;;;;;;;4.57;3.90;;;3.80;99.90;;;;;;5039625;28;20284;-51
2023/03/09 10:23:28;;;;;;;4.33;3.93;;;4.00;99.90;;;;;;5034956;28;20233;-51
2023/03/09 10:26:01;;;;;;;7.53;4.57;;;4.10;99.90;;;;;;5042762;28;20190;-54
2023/03/09 10:28:35;;;;;;;7.50;4.63;;;4.20;99.90;;;;;;5055857;28;20215;-48
2023/03/09 10:31:12;;;;;;;4.13;3.73;;;4.30;99.90;;;;;;5049923;28;20888;-50
2023/03/09 10:33:45;;;;;;;5.47;3.40;;;4.50;99.90;;;;;;5039421;28;20246;-51
2023/03/09 10:36:18;;;;;;;6.03;4.10;;;4.70;99.90;;;;;;5043799;28;20201;-54
2023/03/09 10:38:45;;;;;;;4.73;4.33;;;4.70;99.90;;;;;;5035954;28;20906;-53
2023/03/09 10:41:16;;;;;;;5.43;4.00;;;4.70;99.90;;;;;;5053679;28;20202;-50
2023/03/09 10:43:43;;;;;;;4.33;3.93;;;4.60;99.90;;;;;;5043823;28;20215;-50
2023/03/09 10:46:15;;;;;;;4.73;4.07;;;4.60;99.90;;;;;;5050337;28;20285;-49
2023/03/09 10:48:43;;;;;;;5.97;4.00;;;4.60;99.90;;;;;;5049392;28;20221;-50
2023/03/09 10:51:24;;;;;;;6.40;4.30;;;4.60;99.90;;;;;;5051652;28;20253;-50
2023/03/09 10:53:54;;;;;;;5.23;3.93;;;4.80;99.90;;;;;;5030599;28;20222;-50
2023/03/09 10:56:23;;;;;;;3.97;3.53;;;5.00;99.90;;;;;;5051316;28;20554;-54
2023/03/09 10:59:12;;;;;;;4.50;3.90;;;5.20;99.90;;;;;;5052702;28;20248;-51
2023/03/09 11:01:41;;;;;;;8.67;3.47;;;5.10;99.90;;;;;;5039206;28;20199;-45
2023/03/09 11:04:32;;;;;;;4.83;3.40;;;5.10;99.90;;;;;;5042251;28;20233;-52
2023/03/09 11:07:00;;;;;;;6.67;4.07;;;5.20;99.90;;;;;;5052425;28;20187;-54
2023/03/09 11:09:31;;;;;;;5.13;3.97;;;5.30;99.90;;;;;;5032844;28;20207;-47
2023/03/09 11:12:09;;;;;;;5.57;3.77;;;5.40;99.90;;;;;;5046046;28;20203;-50
2023/03/09 11:14:43;;;;;;;4.17;3.50;;;5.50;99.90;;;;;;5038371;28;20230;-46
2023/03/09 11:17:29;;;;;;;4.13;3.73;;;5.50;99.90;;;;;;5056627;28;20212;-54
2023/03/09 11:20:35;;;;;;;4.50;4.03;;;5.20;99.90;;;;;;5048752;28;20198;-52
2023/03/09 11:23:13;;;;;;;5.23;3.77;;;5.20;99.90;;;;;;5058902;28;20890;-55
2023/03/09 11:25:53;;;;;;;4.73;4.17;;;5.30;99.90;;;;;;5033241;28;20207;-46
2023/03/09 11:28:29;;;;;;;4.33;3.60;;;5.20;99.90;;;;;;5053891;28;20654;-50
2023/03/09 11:30:57;;;;;;;3.80;3.50;;;5.20;99.90;;;;;;5045379;28;20206;-50
2023/03/09 11:33:26;;;;;;;4.77;3.80;;;5.20;99.90;;;;;;5043671;28;20217;-51
2023/03/09 11:35:55;;;;;;;5.90;3.83;;;5.20;99.90;;;;;;5040772;28;20238;-53
2023/03/09 11:38:23;;;;;;;4.23;3.57;;;5.20;99.90;;;;;;5044481;28;20204;-51
2023/03/09 11:40:59;;;;;;;6.20;4.20;;;5.10;99.90;;;;;;5027324;28;21192;-55
2023/03/09 11:43:30;;;;;;;5.57;3.40;;;5.10;99.90;;;;;;5051858;28;20215;-48
2023/03/09 11:46:00;;;;;;;4.40;3.07;;;5.20;99.90;;;;;;5049812;28;20192;-52
2023/03/09 11:48:32;;;;;;;4.13;3.73;;;5.20;99.90;;;;;;5048810;28;20203;-50
2023/03/09 11:51:04;;;;;;;4.53;4.13;;;5.30;99.90;;;;;;5041659;28;20204;-56
2023/03/09 11:53:34;;;;;;;6.43;4.17;;;5.30;99.90;;;;;;5054369;28;20227;-49
2023/03/09 11:56:17;;;;;;;4.40;4.00;;;5.30;99.90;;;;;;5042767;28;21063;-55
2023/03/09 11:58:49;;;;;;;3.50;3.07;;;5.30;99.90;;;;;;5041585;28;20257;-52
2023/03/09 12:01:22;;;;;;;3.87;3.17;;;5.30;99.90;;;;;;5055681;28;20226;-54
2023/03/09 12:03:58;;;;;;;3.63;3.10;;;5.30;99.90;;;;;;5048504;28;20215;-53
2023/03/09 12:06:46;;;;;;;5.03;3.47;;;5.40;99.90;;;;;;5049837;28;20218;-49
2023/03/09 12:09:23;;;;;;;5.70;3.13;;;5.30;99.90;;;;;;5053236;28;20253;-50
2023/03/09 12:11:54;;;;;;;4.40;3.50;;;5.30;99.90;;;;;;5030127;28;20688;-51
2023/03/09 12:14:24;;;;;;;3.70;3.40;;;5.20;99.90;;;;;;5049815;28;20217;-50
2023/03/09 12:16:55;;;;;;;5.37;4.07;;;5.30;99.90;;;;;;5056042;28;20959;-55
2023/03/09 12:19:27;;;;;;;3.17;2.97;;;5.30;99.90;;;;;;5043987;28;20207;-51
2023/03/09 12:22:02;;;;;;;3.83;3.30;;;5.30;99.90;;;;;;5044220;28;20585;-53
2023/03/09 12:24:34;;;;;;;10.87;8.93;;;5.30;99.90;;;;;;5060867;28;20218;-49
2023/03/09 12:27:05;;;;;;;4.83;3.90;;;5.30;99.90;;;;;;5044921;28;20712;-54
2023/03/09 12:29:37;;;;;;;4.13;3.73;;;5.30;99.90;;;;;;5028288;28;20880;-51
2023/03/09 12:32:38;;;;;;;4.47;4.07;;;5.30;99.90;;;;;;5051253;28;20672;-51
2023/03/09 12:35:34;;;;;;;4.90;3.23;;;5.40;99.90;;;;;;5041135;28;20215;-51
2023/03/09 12:38:19;;;;;;;4.70;4.10;;;5.40;99.90;;;;;;5049178;28;20253;-47
2023/03/09 12:40:46;;;;;;;3.80;3.50;;;5.40;99.90;;;;;;5065199;28;20291;-51
2023/03/09 12:43:52;;;;;;;6.23;4.07;;;5.50;99.90;;;;;;5034217;28;20226;-52
2023/03/09 12:46:55;;;;;;;5.73;4.33;;;5.40;99.90;;;;;;5045942;28;20198;-51
2023/03/09 12:49:26;;;;;;;5.10;4.60;;;5.30;99.90;;;;;;5039216;28;20242;-57
2023/03/09 12:52:26;;;;;;;7.03;4.83;;;5.20;99.90;;;;;;5048508;28;20689;-51
2023/03/09 12:54:58;;;;;;;5.80;4.77;;;5.10;99.90;;;;;;5054688;28;20327;-49
2023/03/09 12:57:25;;;;;;;5.20;4.70;;;5.20;99.90;;;;;;5061355;28;20216;-55
2023/03/09 12:59:52;;;;;;;5.00;4.17;;;5.20;99.90;;;;;;5039802;28;20691;-50
2023/03/09 13:02:31;;;;;;;6.33;5.10;;;5.20;99.90;;;;;;5049150;28;20781;-52
2023/03/09 13:05:28;;;;;;;5.33;4.60;;;5.30;99.90;;;;;;5042302;28;20226;-52
2023/03/09 13:08:00;;;;;;;4.30;3.90;;;5.40;99.90;;;;;;5043088;28;20278;-49
2023/03/09 13:10:30;;;;;;;6.47;4.60;;;5.40;99.90;;;;;;5044265;28;20238;-52
2023/03/09 13:13:39;;;;;;;4.33;3.93;;;5.50;99.90;;;;;;5034653;28;20225;-50